CheckWX is a tool to help pilots better visualize weather data.  It is not intended as a substitute for an official pre-flight weather briefing.

02:16:19 UTC

KDKX METAR
Knoxville Downtown Island Airport
Knoxville, Tennessee, USA
Current

21 mins ago

KDKX 190155Z AUTO 00000KT OVC055 26/21 A3005 RMK A01
Observed
Sep-19 @ 01:55 UTC
Visibility
Cloud Levels
  • Overcast at 5,500' AGL
Temperature
26°C / 79°F
Dewpoint
21°C / 70°F
Humidity
74%
Altimeter
30.05" Hg
Pressure
1017.62 hPa
Previous

41 mins ago

KDKX 190135Z AUTO 00000KT OVC050 26/20 A3005 RMK A01
Observed
Sep-19 @ 01:35 UTC
Visibility
Cloud Levels
  • Overcast at 5,000' AGL
Temperature
26°C / 79°F
Dewpoint
20°C / 68°F
Humidity
70%
Altimeter
30.05" Hg
Pressure
1017.62 hPa
Previous

1 hour ago

KDKX 190115Z AUTO 00000KT BKN050 27/20 A3004 RMK A01
Observed
Sep-19 @ 01:15 UTC
Visibility
Cloud Levels
  • Broken at 5,000' AGL
Temperature
27°C / 81°F
Dewpoint
20°C / 68°F
Heat Index
29°C / 84°F
Humidity
66%
Altimeter
30.04" Hg
Pressure
1017.32 hPa